sensor_id;sensor_type;location;lat;lon;timestamp;temperature;humidity
52113;DHT22;38109;49.488;31.988;2023-05-10T00:00:24;13.80;47.10
52113;DHT22;38109;49.488;31.988;2023-05-10T00:02:49;13.80;47.20
52113;DHT22;38109;49.488;31.988;2023-05-10T00:05:15;13.80;47.10
52113;DHT22;38109;49.488;31.988;2023-05-10T00:07:41;13.80;47.10
52113;DHT22;38109;49.488;31.988;2023-05-10T00:10:10;13.80;47.50
52113;DHT22;38109;49.488;31.988;2023-05-10T00:12:36;13.80;47.60
52113;DHT22;38109;49.488;31.988;2023-05-10T00:15:02;13.80;47.60
52113;DHT22;38109;49.488;31.988;2023-05-10T00:17:28;13.80;47.70
52113;DHT22;38109;49.488;31.988;2023-05-10T00:19:54;13.80;47.70
52113;DHT22;38109;49.488;31.988;2023-05-10T00:22:20;13.80;47.80
52113;DHT22;38109;49.488;31.988;2023-05-10T00:24:45;13.90;47.90
52113;DHT22;38109;49.488;31.988;2023-05-10T00:27:11;13.80;47.80
52113;DHT22;38109;49.488;31.988;2023-05-10T00:29:37;13.80;47.60
52113;DHT22;38109;49.488;31.988;2023-05-10T00:32:03;13.80;47.70
52113;DHT22;38109;49.488;31.988;2023-05-10T00:34:28;13.80;47.60
52113;DHT22;38109;49.488;31.988;2023-05-10T00:36:54;13.80;47.60
52113;DHT22;38109;49.488;31.988;2023-05-10T00:39:20;13.80;47.70
52113;DHT22;38109;49.488;31.988;2023-05-10T00:41:45;13.80;47.70
52113;DHT22;38109;49.488;31.988;2023-05-10T00:44:11;13.80;47.60
52113;DHT22;38109;49.488;31.988;2023-05-10T00:46:37;13.80;47.60
52113;DHT22;38109;49.488;31.988;2023-05-10T00:49:02;13.80;47.50
52113;DHT22;38109;49.488;31.988;2023-05-10T00:51:28;13.80;47.50
52113;DHT22;38109;49.488;31.988;2023-05-10T00:53:54;13.80;47.40
52113;DHT22;38109;49.488;31.988;2023-05-10T00:56:21;13.80;47.30
52113;DHT22;38109;49.488;31.988;2023-05-10T00:58:48;13.80;47.30
52113;DHT22;38109;49.488;31.988;2023-05-10T01:01:14;13.80;47.40
52113;DHT22;38109;49.488;31.988;2023-05-10T01:03:40;13.80;47.50
52113;DHT22;38109;49.488;31.988;2023-05-10T01:06:07;13.80;47.70
52113;DHT22;38109;49.488;31.988;2023-05-10T01:08:33;13.80;47.70
52113;DHT22;38109;49.488;31.988;2023-05-10T01:10:58;13.80;47.80
52113;DHT22;38109;49.488;31.988;2023-05-10T01:15:58;13.80;47.70
52113;DHT22;38109;49.488;31.988;2023-05-10T01:18:24;13.80;47.70
52113;DHT22;38109;49.488;31.988;2023-05-10T01:29:39;13.80;47.70
52113;DHT22;38109;49.488;31.988;2023-05-10T01:35:18;13.80;47.50
52113;DHT22;38109;49.488;31.988;2023-05-10T01:37:52;13.70;47.40
52113;DHT22;38109;49.488;31.988;2023-05-10T01:43:29;13.70;47.60
52113;DHT22;38109;49.488;31.988;2023-05-10T01:45:59;13.70;48.10
52113;DHT22;38109;49.488;31.988;2023-05-10T01:48:27;13.60;48.10
52113;DHT22;38109;49.488;31.988;2023-05-10T01:50:54;13.60;48.30
52113;DHT22;38109;49.488;31.988;2023-05-10T01:53:22;13.60;48.50
52113;DHT22;38109;49.488;31.988;2023-05-10T01:55:51;13.60;48.60
52113;DHT22;38109;49.488;31.988;2023-05-10T01:58:23;13.60;49.00
52113;DHT22;38109;49.488;31.988;2023-05-10T02:00:51;13.50;49.50
52113;DHT22;38109;49.488;31.988;2023-05-10T02:03:20;13.50;49.80
52113;DHT22;38109;49.488;31.988;2023-05-10T02:05:48;13.40;49.90
52113;DHT22;38109;49.488;31.988;2023-05-10T02:08:15;13.40;50.40
52113;DHT22;38109;49.488;31.988;2023-05-10T02:10:43;13.40;50.70
52113;DHT22;38109;49.488;31.988;2023-05-10T02:13:11;13.30;50.80
52113;DHT22;38109;49.488;31.988;2023-05-10T02:15:37;13.20;51.30
52113;DHT22;38109;49.488;31.988;2023-05-10T02:18:05;13.20;51.20
52113;DHT22;38109;49.488;31.988;2023-05-10T02:20:31;13.10;51.40
52113;DHT22;38109;49.488;31.988;2023-05-10T02:22:58;13.00;51.40
52113;DHT22;38109;49.488;31.988;2023-05-10T02:25:25;13.00;51.60
52113;DHT22;38109;49.488;31.988;2023-05-10T02:27:54;12.90;51.70
52113;DHT22;38109;49.488;31.988;2023-05-10T02:30:21;12.80;51.90
52113;DHT22;38109;49.488;31.988;2023-05-10T02:32:49;12.70;52.00
52113;DHT22;38109;49.488;31.988;2023-05-10T02:35:16;12.70;52.10
52113;DHT22;38109;49.488;31.988;2023-05-10T02:37:43;12.60;52.30
52113;DHT22;38109;49.488;31.988;2023-05-10T02:40:11;12.60;52.30
52113;DHT22;38109;49.488;31.988;2023-05-10T02:42:41;12.50;52.30
52113;DHT22;38109;49.488;31.988;2023-05-10T02:45:13;12.50;52.40
52113;DHT22;38109;49.488;31.988;2023-05-10T02:47:40;12.40;52.40
52113;DHT22;38109;49.488;31.988;2023-05-10T02:50:06;12.40;52.60
52113;DHT22;38109;49.488;31.988;2023-05-10T02:52:46;12.30;52.40
52113;DHT22;38109;49.488;31.988;2023-05-10T02:55:14;12.30;52.50
52113;DHT22;38109;49.488;31.988;2023-05-10T02:57:48;12.30;52.60
52113;DHT22;38109;49.488;31.988;2023-05-10T03:00:16;12.20;52.50
52113;DHT22;38109;49.488;31.988;2023-05-10T03:02:41;12.30;52.60
52113;DHT22;38109;49.488;31.988;2023-05-10T03:05:08;12.20;52.60
52113;DHT22;38109;49.488;31.988;2023-05-10T03:07:34;12.30;52.70
52113;DHT22;38109;49.488;31.988;2023-05-10T03:10:00;12.30;52.80
52113;DHT22;38109;49.488;31.988;2023-05-10T03:12:40;12.20;52.90
52113;DHT22;38109;49.488;31.988;2023-05-10T03:18:09;12.20;53.00
52113;DHT22;38109;49.488;31.988;2023-05-10T03:20:43;12.10;52.90
52113;DHT22;38109;49.488;31.988;2023-05-10T03:25:40;12.10;53.00
52113;DHT22;38109;49.488;31.988;2023-05-10T03:28:06;12.00;53.00
52113;DHT22;38109;49.488;31.988;2023-05-10T03:30:33;12.00;53.00
52113;DHT22;38109;49.488;31.988;2023-05-10T03:33:07;12.00;52.90
52113;DHT22;38109;49.488;31.988;2023-05-10T03:35:33;12.10;52.60
52113;DHT22;38109;49.488;31.988;2023-05-10T03:37:59;12.10;52.60
52113;DHT22;38109;49.488;31.988;2023-05-10T03:40:25;12.20;52.60
52113;DHT22;38109;49.488;31.988;2023-05-10T03:42:51;12.10;52.40
52113;DHT22;38109;49.488;31.988;2023-05-10T03:45:17;12.20;52.60
52113;DHT22;38109;49.488;31.988;2023-05-10T03:47:42;12.20;52.70
52113;DHT22;38109;49.488;31.988;2023-05-10T03:50:08;12.20;52.40
52113;DHT22;38109;49.488;31.988;2023-05-10T03:52:35;12.20;52.30
52113;DHT22;38109;49.488;31.988;2023-05-10T03:55:01;12.20;52.90
52113;DHT22;38109;49.488;31.988;2023-05-10T03:57:28;12.20;52.20
52113;DHT22;38109;49.488;31.988;2023-05-10T03:59:54;12.20;52.10
52113;DHT22;38109;49.488;31.988;2023-05-10T04:02:20;12.20;52.20
52113;DHT22;38109;49.488;31.988;2023-05-10T04:04:45;12.20;52.20
52113;DHT22;38109;49.488;31.988;2023-05-10T04:07:11;12.20;52.30
52113;DHT22;38109;49.488;31.988;2023-05-10T04:09:37;12.20;52.40
52113;DHT22;38109;49.488;31.988;2023-05-10T04:12:02;12.30;52.30
52113;DHT22;38109;49.488;31.988;2023-05-10T04:14:28;12.20;52.30
52113;DHT22;38109;49.488;31.988;2023-05-10T04:16:54;12.20;52.00
52113;DHT22;38109;49.488;31.988;2023-05-10T04:19:20;12.20;52.00
52113;DHT22;38109;49.488;31.988;2023-05-10T04:21:46;12.30;52.00
52113;DHT22;38109;49.488;31.988;2023-05-10T04:24:12;12.30;51.80
52113;DHT22;38109;49.488;31.988;2023-05-10T04:26:37;12.30;51.70
52113;DHT22;38109;49.488;31.988;2023-05-10T04:29:03;12.30;51.50
52113;DHT22;38109;49.488;31.988;2023-05-10T04:31:28;12.30;51.50
52113;DHT22;38109;49.488;31.988;2023-05-10T04:33:54;12.30;51.40
52113;DHT22;38109;49.488;31.988;2023-05-10T04:36:20;12.30;51.30
52113;DHT22;38109;49.488;31.988;2023-05-10T04:38:46;12.30;51.30
52113;DHT22;38109;49.488;31.988;2023-05-10T04:41:11;12.30;51.30
52113;DHT22;38109;49.488;31.988;2023-05-10T04:43:37;12.30;51.40
52113;DHT22;38109;49.488;31.988;2023-05-10T04:46:04;12.30;51.30
52113;DHT22;38109;49.488;31.988;2023-05-10T04:48:30;12.30;51.40
52113;DHT22;38109;49.488;31.988;2023-05-10T04:50:56;12.30;51.50
52113;DHT22;38109;49.488;31.988;2023-05-10T04:53:22;12.30;51.40
52113;DHT22;38109;49.488;31.988;2023-05-10T04:55:47;12.30;51.50
52113;DHT22;38109;49.488;31.988;2023-05-10T04:58:13;12.30;51.40
52113;DHT22;38109;49.488;31.988;2023-05-10T05:00:39;12.30;51.30
52113;DHT22;38109;49.488;31.988;2023-05-10T05:03:04;12.40;51.30
52113;DHT22;38109;49.488;31.988;2023-05-10T05:05:30;12.40;51.20
52113;DHT22;38109;49.488;31.988;2023-05-10T05:07:56;12.40;51.00
52113;DHT22;38109;49.488;31.988;2023-05-10T05:10:22;12.40;50.90
52113;DHT22;38109;49.488;31.988;2023-05-10T05:12:47;12.50;50.80
52113;DHT22;38109;49.488;31.988;2023-05-10T05:15:13;12.50;50.80
52113;DHT22;38109;49.488;31.988;2023-05-10T05:17:40;12.50;50.70
52113;DHT22;38109;49.488;31.988;2023-05-10T05:20:07;12.50;50.70
52113;DHT22;38109;49.488;31.988;2023-05-10T05:22:33;12.60;50.70
52113;DHT22;38109;49.488;31.988;2023-05-10T05:24:58;12.60;50.60
52113;DHT22;38109;49.488;31.988;2023-05-10T05:27:24;12.60;50.50
52113;DHT22;38109;49.488;31.988;2023-05-10T05:29:55;12.70;50.40
52113;DHT22;38109;49.488;31.988;2023-05-10T05:32:21;12.70;50.30
52113;DHT22;38109;49.488;31.988;2023-05-10T05:34:47;12.70;50.30
52113;DHT22;38109;49.488;31.988;2023-05-10T05:37:14;12.80;50.30
52113;DHT22;38109;49.488;31.988;2023-05-10T05:39:40;12.80;50.40
52113;DHT22;38109;49.488;31.988;2023-05-10T05:42:05;12.80;50.40
52113;DHT22;38109;49.488;31.988;2023-05-10T05:44:31;12.80;50.40
52113;DHT22;38109;49.488;31.988;2023-05-10T05:46:57;12.90;50.40
52113;DHT22;38109;49.488;31.988;2023-05-10T05:49:22;12.90;50.30
52113;DHT22;38109;49.488;31.988;2023-05-10T05:51:48;13.00;50.40
52113;DHT22;38109;49.488;31.988;2023-05-10T05:54:15;13.00;50.30
52113;DHT22;38109;49.488;31.988;2023-05-10T05:56:41;13.00;50.30
52113;DHT22;38109;49.488;31.988;2023-05-10T05:59:07;13.00;50.20
52113;DHT22;38109;49.488;31.988;2023-05-10T06:01:33;13.00;50.20
52113;DHT22;38109;49.488;31.988;2023-05-10T06:03:59;13.00;50.10
52113;DHT22;38109;49.488;31.988;2023-05-10T06:06:24;13.10;50.20
52113;DHT22;38109;49.488;31.988;2023-05-10T06:08:50;13.10;50.20
52113;DHT22;38109;49.488;31.988;2023-05-10T06:11:15;13.10;50.00
52113;DHT22;38109;49.488;31.988;2023-05-10T06:13:41;13.20;50.00
52113;DHT22;38109;49.488;31.988;2023-05-10T06:16:07;13.20;49.90
52113;DHT22;38109;49.488;31.988;2023-05-10T06:18:33;13.30;49.90
52113;DHT22;38109;49.488;31.988;2023-05-10T06:21:00;13.40;49.80
52113;DHT22;38109;49.488;31.988;2023-05-10T06:23:25;13.40;49.80
52113;DHT22;38109;49.488;31.988;2023-05-10T06:25:52;13.50;49.80
52113;DHT22;38109;49.488;31.988;2023-05-10T06:28:17;13.50;49.90
52113;DHT22;38109;49.488;31.988;2023-05-10T06:30:43;13.50;49.90
52113;DHT22;38109;49.488;31.988;2023-05-10T06:33:09;13.50;49.90
52113;DHT22;38109;49.488;31.988;2023-05-10T06:35:35;13.50;49.90
52113;DHT22;38109;49.488;31.988;2023-05-10T06:38:02;13.60;50.00
52113;DHT22;38109;49.488;31.988;2023-05-10T06:40:27;13.60;49.90
52113;DHT22;38109;49.488;31.988;2023-05-10T06:42:53;13.70;49.90
52113;DHT22;38109;49.488;31.988;2023-05-10T06:45:19;13.70;49.80
52113;DHT22;38109;49.488;31.988;2023-05-10T06:47:44;13.80;49.90
52113;DHT22;38109;49.488;31.988;2023-05-10T06:50:11;13.80;49.80
52113;DHT22;38109;49.488;31.988;2023-05-10T06:52:37;13.80;49.80
52113;DHT22;38109;49.488;31.988;2023-05-10T06:55:04;13.90;49.70
52113;DHT22;38109;49.488;31.988;2023-05-10T06:57:30;13.90;49.60
52113;DHT22;38109;49.488;31.988;2023-05-10T06:59:56;13.90;49.50
52113;DHT22;38109;49.488;31.988;2023-05-10T07:02:22;14.00;49.50
52113;DHT22;38109;49.488;31.988;2023-05-10T07:04:48;14.10;49.40
52113;DHT22;38109;49.488;31.988;2023-05-10T07:07:14;14.10;49.20
52113;DHT22;38109;49.488;31.988;2023-05-10T07:09:40;14.20;49.30
52113;DHT22;38109;49.488;31.988;2023-05-10T07:12:06;14.20;49.10
52113;DHT22;38109;49.488;31.988;2023-05-10T07:14:31;14.20;48.70
52113;DHT22;38109;49.488;31.988;2023-05-10T07:16:57;14.30;48.60
52113;DHT22;38109;49.488;31.988;2023-05-10T07:19:23;14.30;48.40
52113;DHT22;38109;49.488;31.988;2023-05-10T07:21:49;14.40;48.00
52113;DHT22;38109;49.488;31.988;2023-05-10T07:24:16;14.40;47.80
52113;DHT22;38109;49.488;31.988;2023-05-10T07:26:41;14.40;47.70
52113;DHT22;38109;49.488;31.988;2023-05-10T07:29:07;14.50;47.60
52113;DHT22;38109;49.488;31.988;2023-05-10T07:31:33;14.50;47.30
52113;DHT22;38109;49.488;31.988;2023-05-10T07:33:58;14.60;47.00
52113;DHT22;38109;49.488;31.988;2023-05-10T07:36:24;14.60;46.90
52113;DHT22;38109;49.488;31.988;2023-05-10T07:38:49;14.60;46.80
52113;DHT22;38109;49.488;31.988;2023-05-10T07:41:15;14.70;46.80
52113;DHT22;38109;49.488;31.988;2023-05-10T07:43:41;14.70;46.60
52113;DHT22;38109;49.488;31.988;2023-05-10T07:46:06;14.80;46.40
52113;DHT22;38109;49.488;31.988;2023-05-10T07:48:32;14.90;46.40
52113;DHT22;38109;49.488;31.988;2023-05-10T07:50:58;14.90;46.20
52113;DHT22;38109;49.488;31.988;2023-05-10T07:53:26;15.00;46.10
52113;DHT22;38109;49.488;31.988;2023-05-10T07:55:54;15.00;46.00
52113;DHT22;38109;49.488;31.988;2023-05-10T07:58:23;15.00;45.90
52113;DHT22;38109;49.488;31.988;2023-05-10T08:00:49;15.10;45.90
52113;DHT22;38109;49.488;31.988;2023-05-10T08:03:15;15.10;45.70
52113;DHT22;38109;49.488;31.988;2023-05-10T08:05:40;15.20;45.60
52113;DHT22;38109;49.488;31.988;2023-05-10T08:08:06;15.20;45.30
52113;DHT22;38109;49.488;31.988;2023-05-10T08:10:32;15.30;45.20
52113;DHT22;38109;49.488;31.988;2023-05-10T08:12:57;15.30;45.00
52113;DHT22;38109;49.488;31.988;2023-05-10T08:15:24;15.30;44.70
52113;DHT22;38109;49.488;31.988;2023-05-10T08:17:51;15.30;44.70
52113;DHT22;38109;49.488;31.988;2023-05-10T08:20:17;15.40;44.60
52113;DHT22;38109;49.488;31.988;2023-05-10T08:22:45;15.40;44.40
52113;DHT22;38109;49.488;31.988;2023-05-10T08:25:10;15.40;43.70
52113;DHT22;38109;49.488;31.988;2023-05-10T08:27:36;15.40;43.90
52113;DHT22;38109;49.488;31.988;2023-05-10T08:30:02;15.40;44.00
52113;DHT22;38109;49.488;31.988;2023-05-10T08:32:27;15.40;44.00
52113;DHT22;38109;49.488;31.988;2023-05-10T08:34:53;15.50;44.10
52113;DHT22;38109;49.488;31.988;2023-05-10T08:37:19;15.50;44.10
52113;DHT22;38109;49.488;31.988;2023-05-10T08:39:45;15.50;43.90
52113;DHT22;38109;49.488;31.988;2023-05-10T08:42:16;15.60;43.80
52113;DHT22;38109;49.488;31.988;2023-05-10T08:44:43;15.60;43.50
52113;DHT22;38109;49.488;31.988;2023-05-10T08:47:09;15.70;43.50
52113;DHT22;38109;49.488;31.988;2023-05-10T08:49:37;15.70;43.40
52113;DHT22;38109;49.488;31.988;2023-05-10T08:52:03;15.70;43.50
52113;DHT22;38109;49.488;31.988;2023-05-10T08:54:34;15.80;43.40
52113;DHT22;38109;49.488;31.988;2023-05-10T08:57:00;15.80;43.20
52113;DHT22;38109;49.488;31.988;2023-05-10T08:59:25;15.90;43.10
52113;DHT22;38109;49.488;31.988;2023-05-10T09:01:52;15.90;43.00
52113;DHT22;38109;49.488;31.988;2023-05-10T09:04:20;16.00;43.10
52113;DHT22;38109;49.488;31.988;2023-05-10T09:06:46;16.00;43.10
52113;DHT22;38109;49.488;31.988;2023-05-10T09:09:12;16.10;43.20
52113;DHT22;38109;49.488;31.988;2023-05-10T09:11:38;16.20;43.00
52113;DHT22;38109;49.488;31.988;2023-05-10T09:14:04;16.20;42.70
52113;DHT22;38109;49.488;31.988;2023-05-10T09:16:30;16.20;42.30
52113;DHT22;38109;49.488;31.988;2023-05-10T09:18:56;16.30;42.20
52113;DHT22;38109;49.488;31.988;2023-05-10T09:21:21;16.30;42.20
52113;DHT22;38109;49.488;31.988;2023-05-10T09:23:47;16.40;41.70
52113;DHT22;38109;49.488;31.988;2023-05-10T09:26:15;16.40;41.70
52113;DHT22;38109;49.488;31.988;2023-05-10T09:28:55;16.40;41.50
52113;DHT22;38109;49.488;31.988;2023-05-10T09:31:21;16.30;41.30
52113;DHT22;38109;49.488;31.988;2023-05-10T09:33:48;16.40;41.40
52113;DHT22;38109;49.488;31.988;2023-05-10T09:36:15;16.40;41.20
52113;DHT22;38109;49.488;31.988;2023-05-10T09:38:51;16.40;40.90
52113;DHT22;38109;49.488;31.988;2023-05-10T09:41:22;16.40;40.60
52113;DHT22;38109;49.488;31.988;2023-05-10T09:43:48;16.40;39.70
52113;DHT22;38109;49.488;31.988;2023-05-10T09:46:15;16.40;40.10
52113;DHT22;38109;49.488;31.988;2023-05-10T09:48:46;16.40;40.00
52113;DHT22;38109;49.488;31.988;2023-05-10T09:51:23;16.40;39.70
52113;DHT22;38109;49.488;31.988;2023-05-10T09:54:12;16.40;39.80
52113;DHT22;38109;49.488;31.988;2023-05-10T09:56:38;16.40;40.00
52113;DHT22;38109;49.488;31.988;2023-05-10T09:59:07;16.50;40.20
52113;DHT22;38109;49.488;31.988;2023-05-10T10:01:34;16.50;40.30
52113;DHT22;38109;49.488;31.988;2023-05-10T10:04:03;16.50;40.50
52113;DHT22;38109;49.488;31.988;2023-05-10T10:06:29;16.60;39.80
52113;DHT22;38109;49.488;31.988;2023-05-10T10:08:57;16.60;39.80
52113;DHT22;38109;49.488;31.988;2023-05-10T10:11:23;16.60;39.70
52113;DHT22;38109;49.488;31.988;2023-05-10T10:13:49;16.60;39.40
52113;DHT22;38109;49.488;31.988;2023-05-10T10:16:15;16.60;39.60
52113;DHT22;38109;49.488;31.988;2023-05-10T10:18:42;16.60;39.90
52113;DHT22;38109;49.488;31.988;2023-05-10T10:21:07;16.60;40.00
52113;DHT22;38109;49.488;31.988;2023-05-10T10:23:36;16.60;39.70
52113;DHT22;38109;49.488;31.988;2023-05-10T10:26:04;16.70;39.50
52113;DHT22;38109;49.488;31.988;2023-05-10T10:28:51;16.70;39.60
52113;DHT22;38109;49.488;31.988;2023-05-10T10:34:25;16.70;39.20
52113;DHT22;38109;49.488;31.988;2023-05-10T10:36:52;16.80;39.00
52113;DHT22;38109;49.488;31.988;2023-05-10T10:39:18;16.70;38.90
52113;DHT22;38109;49.488;31.988;2023-05-10T10:41:52;16.70;38.20
52113;DHT22;38109;49.488;31.988;2023-05-10T10:52:26;16.70;38.30
52113;DHT22;38109;49.488;31.988;2023-05-10T10:55:09;16.70;38.50
52113;DHT22;38109;49.488;31.988;2023-05-10T11:00:26;16.70;38.30
52113;DHT22;38109;49.488;31.988;2023-05-10T11:07:57;16.80;37.90
52113;DHT22;38109;49.488;31.988;2023-05-10T11:10:24;16.80;38.00
52113;DHT22;38109;49.488;31.988;2023-05-10T11:13:04;16.80;37.80
52113;DHT22;38109;49.488;31.988;2023-05-10T11:15:40;16.90;38.00
52113;DHT22;38109;49.488;31.988;2023-05-10T11:18:21;16.90;38.00
52113;DHT22;38109;49.488;31.988;2023-05-10T11:20:59;16.90;38.00
52113;DHT22;38109;49.488;31.988;2023-05-10T11:23:33;17.00;37.90
52113;DHT22;38109;49.488;31.988;2023-05-10T11:26:12;16.90;37.60
52113;DHT22;38109;49.488;31.988;2023-05-10T11:28:45;16.90;37.60
52113;DHT22;38109;49.488;31.988;2023-05-10T11:31:18;17.00;37.80
52113;DHT22;38109;49.488;31.988;2023-05-10T11:33:49;17.00;37.50
52113;DHT22;38109;49.488;31.988;2023-05-10T11:38:42;17.00;37.00
52113;DHT22;38109;49.488;31.988;2023-05-10T11:41:09;17.00;37.10
52113;DHT22;38109;49.488;31.988;2023-05-10T11:43:35;17.00;37.30
52113;DHT22;38109;49.488;31.988;2023-05-10T11:46:04;17.00;38.10
52113;DHT22;38109;49.488;31.988;2023-05-10T11:48:30;17.00;37.70
52113;DHT22;38109;49.488;31.988;2023-05-10T11:50:56;17.10;38.10
52113;DHT22;38109;49.488;31.988;2023-05-10T11:53:25;17.10;38.20
52113;DHT22;38109;49.488;31.988;2023-05-10T11:55:51;17.20;38.00
52113;DHT22;38109;49.488;31.988;2023-05-10T11:58:18;17.20;38.00
52113;DHT22;38109;49.488;31.988;2023-05-10T12:00:44;17.20;38.20
52113;DHT22;38109;49.488;31.988;2023-05-10T12:03:11;17.20;37.80
52113;DHT22;38109;49.488;31.988;2023-05-10T12:05:37;17.30;37.80
52113;DHT22;38109;49.488;31.988;2023-05-10T12:08:19;17.20;37.10
52113;DHT22;38109;49.488;31.988;2023-05-10T12:10:45;17.20;37.10
52113;DHT22;38109;49.488;31.988;2023-05-10T12:13:14;17.20;37.40
52113;DHT22;38109;49.488;31.988;2023-05-10T12:15:41;17.20;37.20
52113;DHT22;38109;49.488;31.988;2023-05-10T12:18:11;17.30;37.20
52113;DHT22;38109;49.488;31.988;2023-05-10T12:20:38;17.30;36.90
52113;DHT22;38109;49.488;31.988;2023-05-10T12:23:04;17.30;37.10
52113;DHT22;38109;49.488;31.988;2023-05-10T12:25:32;17.30;37.10
52113;DHT22;38109;49.488;31.988;2023-05-10T12:27:59;17.40;37.20
52113;DHT22;38109;49.488;31.988;2023-05-10T12:30:30;17.40;36.70
52113;DHT22;38109;49.488;31.988;2023-05-10T12:33:08;17.40;36.80
52113;DHT22;38109;49.488;31.988;2023-05-10T12:35:47;17.40;36.60
52113;DHT22;38109;49.488;31.988;2023-05-10T12:38:26;17.40;36.30
52113;DHT22;38109;49.488;31.988;2023-05-10T12:40:54;17.50;36.20
52113;DHT22;38109;49.488;31.988;2023-05-10T12:43:19;17.50;36.20
52113;DHT22;38109;49.488;31.988;2023-05-10T12:45:45;17.50;36.20
52113;DHT22;38109;49.488;31.988;2023-05-10T12:48:14;17.50;36.30
52113;DHT22;38109;49.488;31.988;2023-05-10T12:50:40;17.50;36.20
52113;DHT22;38109;49.488;31.988;2023-05-10T12:53:06;17.50;35.90
52113;DHT22;38109;49.488;31.988;2023-05-10T12:55:31;17.50;36.00
52113;DHT22;38109;49.488;31.988;2023-05-10T12:57:57;17.50;36.00
52113;DHT22;38109;49.488;31.988;2023-05-10T13:00:26;17.40;36.10
52113;DHT22;38109;49.488;31.988;2023-05-10T13:02:51;17.40;36.00
52113;DHT22;38109;49.488;31.988;2023-05-10T13:05:22;17.50;36.20
52113;DHT22;38109;49.488;31.988;2023-05-10T13:07:55;17.50;36.20
52113;DHT22;38109;49.488;31.988;2023-05-10T13:10:21;17.40;36.10
52113;DHT22;38109;49.488;31.988;2023-05-10T13:12:49;17.50;36.20
52113;DHT22;38109;49.488;31.988;2023-05-10T13:15:17;17.50;36.20
52113;DHT22;38109;49.488;31.988;2023-05-10T13:17:42;17.50;36.20
52113;DHT22;38109;49.488;31.988;2023-05-10T13:20:09;17.50;36.10
52113;DHT22;38109;49.488;31.988;2023-05-10T13:22:37;17.50;36.10
52113;DHT22;38109;49.488;31.988;2023-05-10T13:25:04;17.50;36.00
52113;DHT22;38109;49.488;31.988;2023-05-10T13:27:33;17.50;36.10
52113;DHT22;38109;49.488;31.988;2023-05-10T13:30:01;17.50;36.10
52113;DHT22;38109;49.488;31.988;2023-05-10T13:32:30;17.50;36.20
52113;DHT22;38109;49.488;31.988;2023-05-10T13:34:57;17.50;36.40
52113;DHT22;38109;49.488;31.988;2023-05-10T13:37:23;17.60;36.70
52113;DHT22;38109;49.488;31.988;2023-05-10T13:39:55;17.70;37.00
52113;DHT22;38109;49.488;31.988;2023-05-10T13:42:31;17.70;36.20
52113;DHT22;38109;49.488;31.988;2023-05-10T13:45:01;17.70;36.00
52113;DHT22;38109;49.488;31.988;2023-05-10T13:47:30;17.70;35.80
52113;DHT22;38109;49.488;31.988;2023-05-10T13:49:56;17.70;35.80
52113;DHT22;38109;49.488;31.988;2023-05-10T13:52:22;17.70;35.40
52113;DHT22;38109;49.488;31.988;2023-05-10T13:54:49;17.70;35.50
52113;DHT22;38109;49.488;31.988;2023-05-10T13:57:23;17.80;35.70
52113;DHT22;38109;49.488;31.988;2023-05-10T13:59:51;17.80;35.70
52113;DHT22;38109;49.488;31.988;2023-05-10T14:02:24;17.90;35.70
52113;DHT22;38109;49.488;31.988;2023-05-10T14:04:51;17.90;35.90
52113;DHT22;38109;49.488;31.988;2023-05-10T14:07:17;17.90;35.70
52113;DHT22;38109;49.488;31.988;2023-05-10T14:09:43;17.90;36.20
52113;DHT22;38109;49.488;31.988;2023-05-10T14:12:10;17.90;35.60
52113;DHT22;38109;49.488;31.988;2023-05-10T14:14:35;17.90;35.50
52113;DHT22;38109;49.488;31.988;2023-05-10T14:17:11;17.90;35.60
52113;DHT22;38109;49.488;31.988;2023-05-10T14:19:38;17.90;35.40
52113;DHT22;38109;49.488;31.988;2023-05-10T14:22:04;17.90;35.30
52113;DHT22;38109;49.488;31.988;2023-05-10T14:24:29;17.90;35.50
52113;DHT22;38109;49.488;31.988;2023-05-10T14:26:55;17.80;35.50
52113;DHT22;38109;49.488;31.988;2023-05-10T14:29:21;17.70;35.50
52113;DHT22;38109;49.488;31.988;2023-05-10T14:31:47;17.70;35.30
52113;DHT22;38109;49.488;31.988;2023-05-10T14:34:13;17.60;35.50
52113;DHT22;38109;49.488;31.988;2023-05-10T14:36:39;17.60;35.60
52113;DHT22;38109;49.488;31.988;2023-05-10T14:39:05;17.50;35.60
52113;DHT22;38109;49.488;31.988;2023-05-10T14:41:31;17.40;35.70
52113;DHT22;38109;49.488;31.988;2023-05-10T14:43:58;17.40;35.40
52113;DHT22;38109;49.488;31.988;2023-05-10T14:46:23;17.20;34.80
52113;DHT22;38109;49.488;31.988;2023-05-10T14:48:51;17.20;35.10
52113;DHT22;38109;49.488;31.988;2023-05-10T14:51:17;17.10;35.20
52113;DHT22;38109;49.488;31.988;2023-05-10T14:53:44;17.10;35.40
52113;DHT22;38109;49.488;31.988;2023-05-10T14:56:11;17.00;35.20
52113;DHT22;38109;49.488;31.988;2023-05-10T14:58:37;17.10;35.40
52113;DHT22;38109;49.488;31.988;2023-05-10T15:01:04;17.10;35.50
52113;DHT22;38109;49.488;31.988;2023-05-10T15:03:30;17.10;35.40
52113;DHT22;38109;49.488;31.988;2023-05-10T15:05:55;17.10;35.20
52113;DHT22;38109;49.488;31.988;2023-05-10T15:08:23;17.20;34.90
52113;DHT22;38109;49.488;31.988;2023-05-10T15:10:50;17.20;35.10
52113;DHT22;38109;49.488;31.988;2023-05-10T15:13:16;17.30;35.30
52113;DHT22;38109;49.488;31.988;2023-05-10T15:15:41;17.40;35.20
52113;DHT22;38109;49.488;31.988;2023-05-10T15:18:08;17.50;34.90
52113;DHT22;38109;49.488;31.988;2023-05-10T15:20:34;17.60;34.70
52113;DHT22;38109;49.488;31.988;2023-05-10T15:23:00;17.60;34.60
52113;DHT22;38109;49.488;31.988;2023-05-10T15:25:26;17.60;34.40
52113;DHT22;38109;49.488;31.988;2023-05-10T15:27:55;17.70;34.40
52113;DHT22;38109;49.488;31.988;2023-05-10T15:30:20;17.60;34.60
52113;DHT22;38109;49.488;31.988;2023-05-10T15:32:46;17.60;34.60
52113;DHT22;38109;49.488;31.988;2023-05-10T15:35:12;17.60;34.40
52113;DHT22;38109;49.488;31.988;2023-05-10T15:37:39;17.60;34.50
52113;DHT22;38109;49.488;31.988;2023-05-10T15:40:05;17.60;34.70
52113;DHT22;38109;49.488;31.988;2023-05-10T15:42:31;17.60;35.20
52113;DHT22;38109;49.488;31.988;2023-05-10T15:44:57;17.60;35.30
52113;DHT22;38109;49.488;31.988;2023-05-10T15:47:23;17.50;35.40
52113;DHT22;38109;49.488;31.988;2023-05-10T15:49:49;17.50;35.70
52113;DHT22;38109;49.488;31.988;2023-05-10T15:52:15;17.40;35.40
52113;DHT22;38109;49.488;31.988;2023-05-10T15:54:41;17.40;35.20
52113;DHT22;38109;49.488;31.988;2023-05-10T15:57:06;17.40;35.10
52113;DHT22;38109;49.488;31.988;2023-05-10T15:59:32;17.40;35.10